Time;durP1;ratioP1;P1;durP2;ratioP2;P2;SDS_P1;SDS_P2;PMS_P1;PMS_P2;Temp;Humidity;BMP_temperature;BMP_pressure;BME280_temperature;BME280_humidity;BME280_pressure;Samples;Min_cycle;Max_cycle;Signal;HPM_P1;HPM_P2
2021/05/19 00:02:37;;;;;;;3.15;2.35;;;8.50;99.90;;;;;;6284650;28;20054;-80
2021/05/19 00:05:39;;;;;;;3.20;2.20;;;8.00;99.90;;;;;;6319286;28;20579;-80
2021/05/19 00:08:40;;;;;;;2.20;1.92;;;8.20;99.90;;;;;;6301034;28;20024;-79
2021/05/19 00:11:42;;;;;;;2.30;2.10;;;8.40;99.90;;;;;;6303266;28;20039;-80
2021/05/19 00:14:42;;;;;;;3.72;2.40;;;8.30;99.90;;;;;;6326327;28;20023;-79
2021/05/19 00:17:44;;;;;;;4.03;2.33;;;8.00;99.90;;;;;;6343037;28;20090;-80
2021/05/19 00:20:44;;;;;;;3.00;2.35;;;8.40;99.90;;;;;;6325831;28;20111;-80
2021/05/19 00:23:45;;;;;;;3.80;2.38;;;8.00;99.90;;;;;;6308929;28;20035;-80
2021/05/19 00:26:45;;;;;;;3.08;2.08;;;8.20;99.90;;;;;;6325977;28;20071;-80
2021/05/19 00:29:46;;;;;;;5.85;3.50;;;8.20;99.90;;;;;;6325809;28;20645;-80
2021/05/19 00:32:47;;;;;;;2.72;2.10;;;;;;;;;;6325600;28;20020;-80
2021/05/19 00:35:48;;;;;;;2.38;2.08;;;8.50;99.90;;;;;;6342486;28;20031;-80
2021/05/19 00:38:49;;;;;;;2.40;2.20;;;;;;;;;;6342311;28;20377;-79
2021/05/19 00:41:50;;;;;;;2.63;2.03;;;8.50;99.90;;;;;;6344039;28;20033;-79
2021/05/19 00:44:50;;;;;;;2.90;2.40;;;8.20;99.90;;;;;;6339025;28;20036;-80
2021/05/19 00:47:51;;;;;;;3.35;2.78;;;8.40;99.90;;;;;;6316942;28;20049;-80
2021/05/19 00:50:51;;;;;;;2.92;2.60;;;8.20;99.90;;;;;;6316770;28;20481;-79
2021/05/19 00:53:53;;;;;;;3.15;2.38;;;8.10;99.90;;;;;;6300313;28;20434;-80
2021/05/19 00:56:53;;;;;;;3.75;2.60;;;8.50;99.90;;;;;;6300021;28;20122;-80
2021/05/19 00:59:54;;;;;;;2.63;2.25;;;8.50;99.90;;;;;;6296464;28;20470;-80
2021/05/19 01:02:54;;;;;;;2.92;2.40;;;8.50;99.90;;;;;;6300623;28;20036;-79
2021/05/19 01:06:02;;;;;;;2.70;2.50;;;;;;;;;;6291011;28;20046;-79
2021/05/19 01:12:23;;;;;;;2.90;2.25;;;8.50;99.90;;;;;;6320118;28;20036;-79
2021/05/19 01:15:24;;;;;;;3.83;2.50;;;8.30;99.90;;;;;;6316634;28;20123;-80
2021/05/19 01:18:24;;;;;;;2.65;2.30;;;8.50;99.90;;;;;;6299834;28;20028;-80
2021/05/19 01:21:25;;;;;;;4.38;2.40;;;8.20;99.90;;;;;;6316889;28;20055;-79
2021/05/19 01:24:26;;;;;;;2.55;2.35;;;;;;;;;;6299744;28;20036;-79
2021/05/19 01:27:27;;;;;;;2.83;2.50;;;8.40;99.90;;;;;;6316791;28;20091;-79
2021/05/19 01:30:28;;;;;;;5.90;2.42;;;8.40;99.90;;;;;;6288363;28;20389;-80
2021/05/19 01:33:28;;;;;;;3.40;2.78;;;8.60;99.90;;;;;;6303176;28;20035;-80
2021/05/19 01:36:29;;;;;;;2.92;2.17;;;8.40;99.90;;;;;;6299528;28;20028;-80
2021/05/19 01:39:35;;;;;;;2.72;2.10;;;8.50;99.90;;;;;;6316437;28;20381;-80
2021/05/19 01:42:35;;;;;;;4.35;2.40;;;8.40;99.90;;;;;;6299830;28;20028;-79
2021/05/19 01:45:36;;;;;;;8.98;2.60;;;8.30;99.90;;;;;;6317711;28;21081;-79
2021/05/19 01:48:37;;;;;;;2.78;2.40;;;;;;;;;;6342270;28;20395;-79
2021/05/19 01:51:38;;;;;;;3.08;2.30;;;8.40;99.90;;;;;;6341619;28;20080;-80
2021/05/19 01:54:39;;;;;;;2.85;2.30;;;8.50;99.90;;;;;;6309474;28;20059;-80
2021/05/19 01:57:42;;;;;;;2.45;2.25;;;8.30;99.90;;;;;;6299319;28;20101;-80
2021/05/19 02:00:43;;;;;;;3.72;2.45;;;8.50;99.90;;;;;;6300033;28;20488;-80
2021/05/19 02:03:43;;;;;;;3.53;2.33;;;8.40;99.90;;;;;;6298975;28;20028;-80
2021/05/19 02:06:55;;;;;;;5.05;2.63;;;8.50;99.90;;;;;;6282629;28;20047;-80
2021/05/19 02:09:56;;;;;;;2.47;2.10;;;8.30;99.90;;;;;;6304214;28;20085;-79
2021/05/19 02:13:04;;;;;;;2.75;2.50;;;8.60;99.90;;;;;;6324084;28;20439;-80
2021/05/19 02:16:06;;;;;;;4.00;3.10;;;;;;;;;;6341709;28;20036;-80
2021/05/19 02:19:09;;;;;;;2.60;2.40;;;8.30;99.90;;;;;;6341285;28;20075;-80
2021/05/19 02:22:09;;;;;;;3.75;2.50;;;8.40;99.90;;;;;;6324550;28;20024;-79
2021/05/19 02:25:11;;;;;;;6.47;2.78;;;8.10;99.90;;;;;;6343258;28;20040;-80
2021/05/19 02:28:11;;;;;;;2.65;2.45;;;8.60;99.90;;;;;;6346991;28;20453;-80
2021/05/19 02:31:12;;;;;;;2.97;2.30;;;8.20;99.90;;;;;;6346478;28;20035;-79
2021/05/19 02:34:13;;;;;;;3.72;2.50;;;8.40;99.90;;;;;;6328711;28;20135;-80
2021/05/19 02:37:14;;;;;;;2.72;2.28;;;8.40;99.90;;;;;;6294264;28;20023;-80
2021/05/19 02:40:15;;;;;;;3.03;2.30;;;8.20;99.90;;;;;;6293660;28;20020;-80
2021/05/19 02:43:16;;;;;;;4.65;2.40;;;8.40;99.90;;;;;;6303030;28;20118;-80
2021/05/19 02:46:16;;;;;;;4.07;2.30;;;8.30;99.90;;;;;;6327652;28;20069;-80
2021/05/19 02:49:17;;;;;;;2.45;2.25;;;;;;;;;;6323796;28;20925;-80
2021/05/19 02:52:18;;;;;;;2.50;2.30;;;;;;;;;;6326164;28;20381;-80
2021/05/19 02:55:19;;;;;;;3.08;2.40;;;;;;;;;;6328083;28;20054;-80
2021/05/19 02:58:20;;;;;;;2.95;2.40;;;;;;;;;;6345040;28;20019;-80
2021/05/19 03:01:21;;;;;;;2.30;2.10;;;8.40;99.90;;;;;;6343150;28;21123;-79
2021/05/19 03:04:22;;;;;;;3.83;2.50;;;;;;;;;;6302335;28;20059;-79
2021/05/19 03:07:23;;;;;;;4.05;2.20;;;8.10;99.90;;;;;;6324565;28;20062;-80
2021/05/19 03:10:24;;;;;;;3.15;2.45;;;;;;;;;;6327795;28;20043;-80
2021/05/19 03:13:24;;;;;;;2.60;2.40;;;8.00;99.90;;;;;;6330942;28;20457;-80
2021/05/19 03:16:26;;;;;;;2.75;2.50;;;8.10;99.90;;;;;;6318969;28;20150;-80
2021/05/19 03:19:27;;;;;;;3.53;2.30;;;8.10;99.90;;;;;;6325473;28;20124;-80
2021/05/19 03:22:28;;;;;;;2.75;2.45;;;8.20;99.90;;;;;;6310629;28;20027;-80
2021/05/19 03:25:28;;;;;;;2.78;2.45;;;8.20;99.90;;;;;;6344570;28;20034;-79
2021/05/19 03:28:29;;;;;;;3.83;2.80;;;8.20;99.90;;;;;;6344550;28;20543;-79
2021/05/19 03:31:30;;;;;;;3.92;2.45;;;8.10;99.90;;;;;;6326937;28;20390;-79
2021/05/19 03:34:30;;;;;;;4.10;2.67;;;8.40;99.90;;;;;;6331058;28;20032;-80
2021/05/19 03:37:31;;;;;;;2.67;2.42;;;8.80;99.90;;;;;;6308217;28;20028;-80
2021/05/19 03:40:32;;;;;;;2.38;2.17;;;8.10;99.90;;;;;;6319019;28;20055;-80
2021/05/19 03:43:33;;;;;;;3.42;2.70;;;8.50;99.90;;;;;;6319073;28;20035;-80
2021/05/19 03:46:34;;;;;;;4.28;2.88;;;8.20;99.90;;;;;;6319470;28;20059;-80
2021/05/19 03:49:37;;;;;;;2.83;2.53;;;8.80;99.90;;;;;;6301582;28;20779;-80
2021/05/19 03:52:38;;;;;;;3.10;2.80;;;8.70;99.90;;;;;;6306698;28;20026;-79
2021/05/19 03:55:39;;;;;;;3.67;3.38;;;8.20;99.90;;;;;;6320922;28;20020;-79
2021/05/19 03:58:40;;;;;;;3.45;3.15;;;8.30;99.90;;;;;;6318150;28;20032;-80
2021/05/19 04:01:41;;;;;;;5.15;3.00;;;8.20;99.90;;;;;;6318633;28;20020;-81
2021/05/19 04:04:42;;;;;;;2.83;2.63;;;8.00;99.90;;;;;;6318690;28;20060;-80
2021/05/19 04:07:42;;;;;;;2.90;2.58;;;8.70;99.90;;;;;;6319440;28;20462;-80
2021/05/19 04:10:43;;;;;;;5.15;2.85;;;8.30;99.90;;;;;;6301131;28;20043;-80
2021/05/19 04:13:44;;;;;;;3.22;2.78;;;8.20;99.90;;;;;;6317911;28;20036;-81
2021/05/19 04:16:44;;;;;;;3.42;2.70;;;8.40;99.90;;;;;;6301095;28;20031;-80
2021/05/19 04:19:45;;;;;;;5.68;2.70;;;;;;;;;;6317858;28;20039;-80
2021/05/19 04:22:46;;;;;;;3.05;2.65;;;8.40;99.90;;;;;;6319155;28;20028;-81
2021/05/19 04:25:46;;;;;;;2.67;2.47;;;8.30;99.90;;;;;;6301305;28;20390;-81
2021/05/19 04:28:47;;;;;;;3.53;2.60;;;8.30;99.90;;;;;;6308987;28;20027;-79
2021/05/19 04:31:48;;;;;;;3.90;2.63;;;8.40;99.90;;;;;;6342465;28;20465;-80
2021/05/19 04:34:48;;;;;;;3.05;2.42;;;8.50;99.90;;;;;;6342870;28;20126;-79
2021/05/19 04:37:49;;;;;;;3.25;2.70;;;8.90;99.90;;;;;;6326005;28;20081;-79
2021/05/19 04:40:50;;;;;;;4.50;3.50;;;8.50;99.90;;;;;;6319502;28;20359;-79
2021/05/19 04:43:50;;;;;;;7.43;4.25;;;9.10;99.90;;;;;;6317611;28;20024;-79
2021/05/19 04:46:51;;;;;;;14.82;11.63;;;;;;;;;;6303141;28;20056;-84
2021/05/19 04:49:52;;;;;;;6.57;3.72;;;8.50;99.90;;;;;;6308719;28;20546;-83
2021/05/19 04:52:53;;;;;;;3.05;2.75;;;;;;;;;;6283725;28;20024;-83
2021/05/19 04:55:54;;;;;;;3.08;2.78;;;;;;;;;;6320441;28;20035;-84
2021/05/19 04:58:55;;;;;;;3.13;2.70;;;;;;;;;;6341750;28;20015;-82
2021/05/19 05:01:56;;;;;;;2.95;2.70;;;;;;;;;;6318428;28;20488;-83
2021/05/19 05:04:57;;;;;;;3.95;2.88;;;;;;;;;;6283423;28;20111;-82
2021/05/19 05:07:58;;;;;;;3.10;2.80;;;;;;;;;;6314936;28;20045;-84
2021/05/19 05:10:59;;;;;;;4.15;3.20;;;;;;;;;;6313960;28;20210;-84
2021/05/19 05:13:59;;;;;;;4.00;2.75;;;8.60;99.90;;;;;;6316613;28;20024;-84
2021/05/19 05:17:00;;;;;;;2.83;2.60;;;8.70;99.90;;;;;;6290530;28;20039;-86
2021/05/19 05:20:00;;;;;;;3.28;2.65;;;8.80;99.90;;;;;;6311080;28;20027;-84
2021/05/19 05:23:01;;;;;;;3.28;2.72;;;8.70;99.90;;;;;;6292313;28;20028;-83
2021/05/19 05:26:02;;;;;;;4.35;2.67;;;;;;;;;;6296311;28;20035;-87
2021/05/19 05:29:03;;;;;;;3.05;2.50;;;8.90;99.90;;;;;;6289375;28;20390;-81
2021/05/19 05:32:04;;;;;;;3.83;2.70;;;8.90;99.90;;;;;;6290388;28;20042;-84
2021/05/19 05:35:06;;;;;;;6.65;4.50;;;9.10;99.90;;;;;;6331452;28;20028;-85
2021/05/19 05:38:06;;;;;;;9.77;6.47;;;9.10;99.90;;;;;;6289021;28;20028;-86
2021/05/19 05:41:07;;;;;;;17.65;9.63;;;;;;;;;;6312178;28;20054;-87
2021/05/19 05:44:08;;;;;;;10.13;6.75;;;9.00;99.90;;;;;;6295000;28;20027;-87
2021/05/19 05:47:08;;;;;;;5.38;3.00;;;9.10;99.90;;;;;;6270808;28;20056;-84
2021/05/19 05:50:09;;;;;;;5.55;2.90;;;9.30;99.90;;;;;;6273771;28;20093;-83
2021/05/19 05:53:10;;;;;;;5.80;3.30;;;9.30;99.90;;;;;;6281937;28;20036;-83
2021/05/19 05:56:11;;;;;;;4.35;2.95;;;;;;;;;;6279218;28;20466;-83
2021/05/19 05:59:11;;;;;;;3.58;2.80;;;9.10;99.90;;;;;;6289897;28;20031;-84
2021/05/19 06:02:12;;;;;;;6.18;2.90;;;;;;;;;;6304063;28;20016;-84
2021/05/19 06:05:17;;;;;;;4.50;2.60;;;;;;;;;;6321868;28;20405;-83
2021/05/19 06:08:17;;;;;;;4.93;3.05;;;;;;;;;;6304819;28;20070;-83
2021/05/19 06:11:18;;;;;;;5.47;3.55;;;;;;;;;;6322491;28;20044;-84
2021/05/19 06:14:20;;;;;;;4.13;3.63;;;9.10;99.90;;;;;;6346077;28;20020;-84
2021/05/19 06:17:21;;;;;;;6.10;4.83;;;;;;;;;;6329424;28;20028;-84
2021/05/19 06:20:22;;;;;;;7.03;5.50;;;;;;;;;;6321943;28;20027;-85
2021/05/19 06:23:23;;;;;;;4.80;4.30;;;9.40;99.90;;;;;;6334748;28;20024;-84
2021/05/19 06:26:24;;;;;;;4.93;2.97;;;;;;;;;;6328410;28;20066;-85
2021/05/19 06:29:25;;;;;;;3.78;3.10;;;;;;;;;;6341429;28;20035;-84
2021/05/19 06:32:25;;;;;;;3.63;3.03;;;9.30;99.90;;;;;;6328306;28;20031;-84
2021/05/19 06:35:27;;;;;;;15.18;12.10;;;9.70;99.90;;;;;;6311453;28;20084;-83
2021/05/19 06:38:27;;;;;;;6.72;5.20;;;9.60;99.90;;;;;;6328511;28;20035;-83
2021/05/19 06:41:28;;;;;;;4.82;3.10;;;9.80;99.90;;;;;;6344593;28;20110;-84
2021/05/19 06:44:31;;;;;;;3.33;3.00;;;;;;;;;;6325799;28;20035;-83
2021/05/19 06:47:32;;;;;;;3.25;2.88;;;10.00;99.90;;;;;;6321395;28;20118;-84
2021/05/19 06:50:32;;;;;;;3.65;2.92;;;10.20;99.90;;;;;;6345143;28;20378;-83
2021/05/19 06:53:33;;;;;;;4.85;2.67;;;;;;;;;;6324096;28;20087;-84
2021/05/19 06:56:34;;;;;;;3.55;2.85;;;10.30;99.90;;;;;;6311174;28;20145;-84
2021/05/19 06:59:35;;;;;;;4.82;2.90;;;;;;;;;;6302565;28;20040;-84
2021/05/19 07:02:38;;;;;;;5.68;3.05;;;10.40;99.90;;;;;;6301611;28;20032;-84
2021/05/19 07:05:39;;;;;;;5.90;3.53;;;10.80;99.90;;;;;;6301050;28;20035;-84
2021/05/19 07:08:40;;;;;;;5.43;4.90;;;;;;;;;;6302062;28;20031;-83
2021/05/19 07:11:41;;;;;;;5.68;5.07;;;;;;;;;;6320078;28;20113;-86
2021/05/19 07:14:54;;;;;;;23.95;10.93;;;;;;;;;;6307386;28;20027;-87
2021/05/19 07:17:55;;;;;;;8.30;4.00;;;13.50;99.90;;;;;;6303353;28;20663;-86
2021/05/19 07:20:56;;;;;;;17.05;13.02;;;13.70;99.90;;;;;;6311849;28;20040;-85
2021/05/19 07:23:57;;;;;;;7.90;4.32;;;14.40;99.90;;;;;;6293139;28;20039;-87
2021/05/19 07:26:57;;;;;;;5.60;2.88;;;16.20;99.90;;;;;;6295565;28;20114;-86
2021/05/19 07:29:58;;;;;;;5.10;3.15;;;;;;;;;;6279923;28;20454;-87
2021/05/19 07:32:59;;;;;;;3.15;2.42;;;17.30;99.90;;;;;;6333765;28;20027;-84
2021/05/19 07:36:00;;;;;;;23.63;12.73;;;;;;;;;;6292907;28;20095;-88
2021/05/19 07:39:02;;;;;;;17.50;10.98;;;16.30;95.90;;;;;;6318264;28;20035;-86
2021/05/19 07:42:03;;;;;;;11.60;6.82;;;16.30;87.00;;;;;;6309220;28;20085;-85
2021/05/19 07:45:04;;;;;;;16.25;10.00;;;15.90;89.50;;;;;;6308420;28;20518;-85
2021/05/19 07:48:05;;;;;;;5.32;3.40;;;15.40;98.80;;;;;;6298905;28;20281;-86
2021/05/19 07:51:06;;;;;;;3.42;2.80;;;;;;;;;;6301462;28;20040;-85
2021/05/19 07:54:08;;;;;;;4.18;2.55;;;15.80;98.60;;;;;;6323256;28;20051;-87
2021/05/19 08:00:17;;;;;;;3.78;3.03;;;16.90;88.60;;;;;;6315994;28;20020;-86
2021/05/19 08:03:18;;;;;;;6.47;2.42;;;;;;;;;;6289073;28;20028;-88
2021/05/19 08:06:19;;;;;;;4.03;2.30;;;;;;;;;;6312909;28;20085;-87
2021/05/19 08:09:20;;;;;;;2.83;2.20;;;19.90;75.30;;;;;;6309828;28;20077;-89
2021/05/19 08:12:21;;;;;;;3.20;2.55;;;;;;;;;;6286069;28;20379;-90
2021/05/19 08:15:22;;;;;;;2.72;2.10;;;;;;;;;;6299128;28;20030;-89
2021/05/19 08:18:24;;;;;;;2.45;1.92;;;20.70;68.80;;;;;;6324127;28;20457;-88
2021/05/19 08:21:25;;;;;;;3.15;2.10;;;;;;;;;;6279322;28;20028;-88
2021/05/19 08:24:26;;;;;;;2.45;2.25;;;;;;;;;;6293224;28;20431;-88
2021/05/19 08:27:27;;;;;;;3.20;2.00;;;21.20;69.10;;;;;;6317076;28;20149;-87
2021/05/19 08:30:27;;;;;;;3.85;1.90;;;21.60;66.60;;;;;;6305528;28;20473;-87
2021/05/19 08:33:28;;;;;;;3.10;2.00;;;21.60;69.10;;;;;;6287580;28;20034;-87
2021/05/19 08:36:29;;;;;;;5.57;1.80;;;21.00;67.60;;;;;;6286316;28;20027;-87
2021/05/19 08:39:29;;;;;;;3.65;2.05;;;20.90;70.20;;;;;;6292661;28;20103;-86
2021/05/19 08:42:33;;;;;;;4.10;2.22;;;19.80;73.80;;;;;;6304918;28;20388;-90
2021/05/19 08:45:33;;;;;;;2.05;1.85;;;;;;;;;;6277371;28;20056;-87
2021/05/19 08:48:35;;;;;;;5.70;2.20;;;;;;;;;;6294770;28;20048;-88
2021/05/19 08:51:36;;;;;;;2.42;2.00;;;;;;;;;;6307870;28;20070;-88
2021/05/19 08:54:38;;;;;;;2.10;1.95;;;;;;;;;;6294978;27;20397;-88
2021/05/19 08:57:47;;;;;;;2.80;1.65;;;;;;;;;;6319956;28;20050;-89
2021/05/19 09:01:06;;;;;;;2.58;1.98;;;18.70;76.40;;;;;;6297512;28;20559;-90
2021/05/19 09:04:34;;;;;;;2.55;1.95;;;18.30;77.40;;;;;;6305462;28;20396;-89
2021/05/19 09:07:36;;;;;;;5.07;2.45;;;;;;;;;;6314441;28;20063;-89
2021/05/19 09:10:38;;;;;;;5.50;2.40;;;18.80;78.60;;;;;;6301377;28;20062;-88
2021/05/19 09:13:41;;;;;;;2.05;1.90;;;20.40;71.30;;;;;;6295996;28;20415;-87
2021/05/19 09:16:42;;;;;;;3.95;2.00;;;20.90;85.40;;;;;;6288627;28;20024;-88
2021/05/19 09:19:43;;;;;;;2.78;2.08;;;20.90;66.90;;;;;;6278233;28;20471;-87
2021/05/19 09:22:47;;;;;;;3.60;2.35;;;21.90;62.20;;;;;;6303131;28;20457;-88
2021/05/19 09:26:12;;;;;;;2.40;2.03;;;20.90;81.50;;;;;;6295564;28;20028;-87
2021/05/19 09:29:20;;;;;;;8.05;2.75;;;21.40;81.60;;;;;;6292992;28;20385;-88
2021/05/19 09:32:21;;;;;;;2.83;2.00;;;21.10;65.60;;;;;;6295500;28;20032;-87
2021/05/19 09:35:21;;;;;;;3.85;2.22;;;21.10;81.80;;;;;;6293571;28;20039;-87
2021/05/19 09:38:29;;;;;;;4.35;1.98;;;21.40;78.80;;;;;;6300916;28;20034;-87
2021/05/19 09:41:35;;;;;;;3.88;2.00;;;21.80;75.20;;;;;;6295262;28;20032;-88
2021/05/19 09:44:35;;;;;;;2.70;2.10;;;21.70;58.60;;;;;;6288568;28;20058;-87
2021/05/19 09:47:41;;;;;;;2.45;1.90;;;22.60;59.10;;;;;;6314790;28;20051;-87
2021/05/19 09:50:42;;;;;;;2.92;1.95;;;22.40;60.00;;;;;;6311333;28;20039;-88
2021/05/19 09:53:43;;;;;;;4.45;2.38;;;;;;;;;;6300734;28;20474;-88
2021/05/19 09:57:03;;;;;;;2.25;2.03;;;22.60;69.20;;;;;;6322984;28;20036;-88
2021/05/19 10:00:04;;;;;;;2.33;1.80;;;22.50;54.10;;;;;;6310063;28;20122;-88
2021/05/19 10:03:08;;;;;;;2.88;2.20;;;22.60;54.60;;;;;;6310575;28;20038;-87
2021/05/19 10:06:27;;;;;;;2.00;1.77;;;22.60;55.60;;;;;;6299340;28;20034;-88
2021/05/19 10:09:28;;;;;;;2.55;2.10;;;22.90;66.80;;;;;;6297205;28;20078;-87
2021/05/19 10:12:28;;;;;;;1.77;1.67;;;22.90;55.00;;;;;;6291187;28;20031;-88
2021/05/19 10:15:30;;;;;;;6.18;3.22;;;23.10;52.70;;;;;;6305080;28;20024;-89
2021/05/19 10:18:42;;;;;;;6.47;3.88;;;24.10;47.80;;;;;;6303103;28;20089;-88
2021/05/19 10:21:42;;;;;;;4.35;2.75;;;24.00;66.50;;;;;;6288075;28;20495;-88
2021/05/19 10:24:53;;;;;;;3.33;2.97;;;24.00;53.60;;;;;;6295419;28;20027;-88
2021/05/19 10:27:57;;;;;;;3.00;2.67;;;23.60;52.20;;;;;;6298136;28;20036;-88
2021/05/19 10:30:58;;;;;;;4.93;3.88;;;23.80;56.30;;;;;;6294675;28;20032;-88
2021/05/19 10:34:00;;;;;;;3.78;2.10;;;23.50;57.30;;;;;;6291038;28;20023;-87
2021/05/19 10:37:01;;;;;;;4.55;1.83;;;;;;;;;;6288600;28;20031;-88
2021/05/19 10:40:07;;;;;;;2.70;1.90;;;23.10;54.40;;;;;;6308890;28;20032;-89
2021/05/19 10:43:08;;;;;;;2.92;2.22;;;22.70;54.90;;;;;;6333872;28;20165;-88
2021/05/19 10:46:11;;;;;;;4.00;1.75;;;22.80;51.80;;;;;;6299871;28;20024;-88
2021/05/19 10:49:12;;;;;;;1.83;1.73;;;22.90;55.80;;;;;;6292110;28;20375;-89
2021/05/19 10:59:02;;;;;;;3.53;1.80;;;23.20;51.70;;;;;;6321996;28;20032;-88
2021/05/19 11:02:02;;;;;;;2.42;1.63;;;23.10;52.40;;;;;;6294236;28;20047;-87
2021/05/19 11:05:13;;;;;;;3.50;2.10;;;23.10;52.80;;;;;;6296629;28;20036;-88
2021/05/19 11:08:16;;;;;;;2.63;2.03;;;23.00;52.70;;;;;;6301739;28;20035;-88
2021/05/19 11:11:21;;;;;;;4.57;1.95;;;23.00;52.50;;;;;;6328350;28;20051;-88
2021/05/19 11:14:33;;;;;;;3.33;1.85;;;23.30;50.40;;;;;;6284014;28;20020;-88
2021/05/19 11:17:55;;;;;;;2.08;1.88;;;23.30;51.20;;;;;;6289206;28;20176;-89
2021/05/19 11:20:56;;;;;;;2.03;1.83;;;;;;;;;;6299168;28;20028;-89
2021/05/19 11:24:14;;;;;;;4.30;2.10;;;23.40;46.10;;;;;;6302011;28;20372;-88
2021/05/19 11:27:20;;;;;;;1.60;1.50;;;23.60;54.10;;;;;;6307061;28;20041;-89
2021/05/19 11:30:25;;;;;;;3.22;1.92;;;23.60;53.20;;;;;;6301986;28;20118;-89
2021/05/19 11:33:25;;;;;;;3.90;1.98;;;23.20;53.40;;;;;;6301024;28;20027;-88
2021/05/19 11:36:30;;;;;;;3.05;1.77;;;22.30;67.60;;;;;;6303163;28;20461;-88
2021/05/19 11:39:38;;;;;;;1.75;1.60;;;22.30;55.20;;;;;;6320121;28;20031;-88
2021/05/19 11:42:39;;;;;;;5.78;2.85;;;22.00;70.80;;;;;;6292663;28;20492;-87
2021/05/19 11:45:41;;;;;;;2.15;1.83;;;21.90;55.40;;;;;;6285738;28;20040;-85
2021/05/19 11:48:48;;;;;;;1.60;1.50;;;21.10;55.80;;;;;;6283556;28;20467;-85
2021/05/19 11:51:49;;;;;;;2.38;1.90;;;21.00;55.00;;;;;;6290118;28;20044;-85
2021/05/19 11:54:50;;;;;;;3.28;1.98;;;20.80;55.40;;;;;;6286023;28;20039;-85
2021/05/19 11:57:51;;;;;;;2.30;1.98;;;20.20;61.10;;;;;;6287796;28;20024;-86
2021/05/19 12:00:57;;;;;;;2.17;1.75;;;20.60;74.20;;;;;;6276683;28;20347;-87
2021/05/19 12:03:58;;;;;;;2.40;1.60;;;20.80;61.40;;;;;;6295784;28;20063;-86
2021/05/19 12:07:02;;;;;;;2.05;1.70;;;21.10;61.20;;;;;;6292488;28;20030;-83
2021/05/19 12:10:07;;;;;;;1.52;1.40;;;21.00;57.40;;;;;;6326697;28;20024;-83
2021/05/19 12:13:08;;;;;;;2.10;1.52;;;20.90;54.90;;;;;;6328118;28;20031;-85
2021/05/19 12:16:11;;;;;;;2.22;1.80;;;21.10;53.80;;;;;;6281048;28;20366;-87
2021/05/19 12:19:15;;;;;;;3.55;2.00;;;22.10;56.40;;;;;;6290563;28;20034;-87
2021/05/19 12:22:18;;;;;;;3.03;1.88;;;20.80;56.80;;;;;;6326290;28;20032;-85
2021/05/19 12:25:19;;;;;;;2.45;1.60;;;19.50;62.00;;;;;;6287265;28;20457;-86
2021/05/19 12:28:21;;;;;;;2.55;1.52;;;18.80;64.70;;;;;;6306507;28;20077;-83
2021/05/19 12:31:29;;;;;;;;;;;18.30;67.20;;;;;;6301434;28;20470;-82
2021/05/19 12:34:31;;;;;;;1.75;1.52;;;18.50;86.90;;;;;;6331604;28;19908;-81
2021/05/19 12:37:45;;;;;;;2.75;1.50;;;18.30;82.60;;;;;;6309774;28;20081;-80
2021/05/19 12:40:47;;;;;;;2.53;1.55;;;18.20;81.80;;;;;;6302613;28;20039;-82
2021/05/19 12:43:58;;;;;;;1.70;1.37;;;18.30;92.40;;;;;;6305949;28;20099;-83
2021/05/19 12:47:05;;;;;;;2.03;1.38;;;18.10;77.70;;;;;;6293226;28;20116;-83
2021/05/19 12:50:07;;;;;;;1.45;1.35;;;17.60;81.80;;;;;;6292836;28;20504;-84
2021/05/19 12:53:08;;;;;;;1.33;1.30;;;;;;;;;;6299902;28;20048;-86
2021/05/19 12:56:13;;;;;;;2.28;1.73;;;17.90;84.80;;;;;;6302943;28;20675;-83
2021/05/19 12:59:13;;;;;;;2.22;1.70;;;17.80;67.90;;;;;;6297322;28;20051;-84
2021/05/19 13:02:14;;;;;;;1.83;1.58;;;18.30;76.00;;;;;;6291130;28;20458;-86
2021/05/19 13:05:23;;;;;;;2.92;2.38;;;17.80;71.80;;;;;;6295095;28;20119;-85
2021/05/19 13:08:23;;;;;;;3.53;1.80;;;17.70;67.10;;;;;;6291722;28;20020;-85
2021/05/19 13:11:25;;;;;;;2.65;1.88;;;;;;;;;;6296698;28;20051;-86
2021/05/19 13:14:49;;;;;;;1.90;1.38;;;17.40;70.70;;;;;;6320022;28;20116;-86
2021/05/19 13:18:03;;;;;;;2.65;1.60;;;17.40;74.20;;;;;;6300570;28;20066;-87
2021/05/19 13:21:19;;;;;;;2.67;1.63;;;17.10;76.10;;;;;;6318176;28;20032;-85
2021/05/19 13:24:21;;;;;;;2.22;1.77;;;16.30;77.70;;;;;;6314469;28;20500;-85
2021/05/19 13:27:26;;;;;;;2.05;1.80;;;16.00;83.30;;;;;;6296719;28;20028;-84
2021/05/19 13:30:28;;;;;;;10.45;2.78;;;15.90;84.40;;;;;;6281892;28;20176;-86
2021/05/19 13:33:36;;;;;;;7.30;2.40;;;15.90;83.30;;;;;;6296080;28;20052;-83
2021/05/19 13:39:41;;;;;;;0.98;0.85;;;16.50;78.20;;;;;;6299742;28;20157;-84
2021/05/19 13:42:42;;;;;;;1.60;1.27;;;;;;;;;;6316159;28;20028;-85
2021/05/19 13:45:43;;;;;;;2.25;1.23;;;;;;;;;;6316048;28;20047;-84
2021/05/19 13:48:43;;;;;;;1.35;1.25;;;16.30;91.00;;;;;;6315418;28;20405;-84
2021/05/19 13:51:45;;;;;;;1.30;1.20;;;15.90;76.60;;;;;;6315881;28;20044;-84
2021/05/19 13:54:49;;;;;;;1.00;1.00;;;15.80;78.10;;;;;;6288520;28;20032;-84
2021/05/19 13:57:49;;;;;;;1.92;1.30;;;16.00;76.60;;;;;;6299532;28;20077;-84
2021/05/19 14:00:50;;;;;;;2.40;0.88;;;;;;;;;;6298660;28;20470;-84
2021/05/19 14:03:51;;;;;;;1.38;1.20;;;16.10;76.90;;;;;;6299346;28;20500;-85
2021/05/19 14:06:52;;;;;;;2.55;1.60;;;16.70;92.40;;;;;;6281915;28;20020;-84
2021/05/19 14:09:52;;;;;;;2.65;1.30;;;17.10;91.20;;;;;;6288498;28;20087;-85
2021/05/19 14:13:03;;;;;;;3.63;1.60;;;;;;;;;;6323730;28;20092;-84
2021/05/19 14:20:12;;;;;;;2.88;1.50;;;17.70;72.40;;;;;;6310577;28;20032;-83
2021/05/19 14:29:11;;;;;;;3.38;1.50;;;18.40;66.80;;;;;;6305789;28;20110;-83
2021/05/19 14:32:12;;;;;;;2.47;1.83;;;;;;;;;;6275067;28;20043;-84
2021/05/19 14:45:30;;;;;;;2.80;1.40;;;18.30;80.10;;;;;;6307098;28;20115;-83
2021/05/19 15:01:43;;;;;;;2.10;1.48;;;;;;;;;;6290444;28;20561;-83
2021/05/19 15:04:46;;;;;;;3.15;1.77;;;;;;;;;;6319580;28;20024;-83
2021/05/19 15:07:47;;;;;;;3.15;1.88;;;;;;;;;;6289743;28;20382;-83
2021/05/19 15:10:48;;;;;;;5.30;1.75;;;;;;;;;;6318956;28;20032;-83
2021/05/19 15:13:49;;;;;;;8.52;3.20;;;15.60;95.90;;;;;;6309528;28;20032;-83
2021/05/19 15:16:50;;;;;;;11.93;3.83;;;;;;;;;;6311198;28;20385;-83
2021/05/19 15:19:50;;;;;;;30.58;8.63;;;15.10;96.10;;;;;;6302015;28;20775;-83
2021/05/19 15:22:51;;;;;;;18.95;6.60;;;;;;;;;;6286829;28;20032;-84
2021/05/19 15:25:52;;;;;;;8.00;3.28;;;15.30;90.40;;;;;;6295632;28;20033;-83
2021/05/19 15:28:52;;;;;;;7.50;3.58;;;15.10;86.80;;;;;;6299768;28;20027;-81
2021/05/19 15:31:53;;;;;;;24.15;6.90;;;14.80;90.00;;;;;;6292022;28;20072;-84
2021/05/19 15:34:54;;;;;;;10.88;4.53;;;14.40;93.00;;;;;;6306042;28;20028;-82
2021/05/19 15:37:56;;;;;;;4.60;3.05;;;;;;;;;;6295228;28;20462;-82
2021/05/19 15:40:56;;;;;;;4.38;1.90;;;14.20;81.80;;;;;;6310965;28;20080;-84
2021/05/19 15:43:58;;;;;;;2.42;1.65;;;;;;;;;;6284981;28;20028;-82
2021/05/19 15:46:59;;;;;;;3.72;2.05;;;12.70;92.70;;;;;;6308355;28;20494;-82
2021/05/19 15:49:59;;;;;;;2.40;1.70;;;12.90;95.80;;;;;;6284550;28;20047;-81
2021/05/19 15:53:00;;;;;;;2.10;1.95;;;;;;;;;;6318713;28;20016;-82
2021/05/19 15:56:02;;;;;;;2.30;1.95;;;;;;;;;;6286463;28;20020;-81
2021/05/19 15:59:03;;;;;;;2.75;1.77;;;11.90;99.90;;;;;;6320765;28;20098;-82
2021/05/19 16:02:05;;;;;;;4.10;1.85;;;11.90;98.70;;;;;;6283470;28;20020;-84
2021/05/19 16:05:07;;;;;;;2.22;1.60;;;11.80;99.60;;;;;;6286147;28;20474;-85
2021/05/19 16:08:08;;;;;;;;;;;11.60;99.90;;;;;;6273097;28;20020;-83
2021/05/19 16:11:10;;;;;;;3.83;1.70;;;;;;;;;;6331377;28;19923;-82
2021/05/19 16:14:11;;;;;;;7.07;3.72;;;11.80;99.90;;;;;;6331982;28;20028;-83
2021/05/19 16:17:11;;;;;;;13.68;9.20;;;11.90;99.80;;;;;;6284455;28;20148;-84
2021/05/19 16:20:13;;;;;;;9.05;4.72;;;11.60;99.90;;;;;;6317823;28;20028;-85
2021/05/19 16:23:13;;;;;;;5.38;3.30;;;11.70;99.10;;;;;;6317620;28;20046;-83
2021/05/19 16:26:14;;;;;;;4.70;2.85;;;11.60;99.50;;;;;;6289206;28;20075;-83
2021/05/19 16:29:52;;;;;;;5.00;2.40;;;11.70;99.90;;;;;;6337556;28;20051;-83
2021/05/19 16:37:03;;;;;;;3.17;2.80;;;11.20;99.90;;;;;;6271154;28;20033;-83
2021/05/19 16:40:04;;;;;;;2.90;1.60;;;10.80;99.90;;;;;;6273824;28;20035;-84
2021/05/19 16:43:05;;;;;;;2.63;1.92;;;11.10;99.90;;;;;;6269657;28;20475;-84
2021/05/19 16:46:06;;;;;;;1.88;1.67;;;;;;;;;;6289970;28;20047;-86
2021/05/19 16:49:08;;;;;;;1.80;1.25;;;;;;;;;;6262882;28;20048;-82
2021/05/19 16:52:09;;;;;;;1.67;1.57;;;;;;;;;;6269698;28;20041;-83
2021/05/19 16:55:10;;;;;;;2.85;1.40;;;;;;;;;;6248803;28;21373;-83
2021/05/19 16:58:10;;;;;;;4.57;1.90;;;10.90;99.90;;;;;;6266051;28;20028;-81
2021/05/19 17:01:13;;;;;;;1.50;1.40;;;;;;;;;;6271956;28;20416;-82
2021/05/19 17:07:33;;;;;;;1.85;1.40;;;11.10;99.90;;;;;;6316825;28;20024;-82
2021/05/19 17:10:34;;;;;;;1.55;1.45;;;11.20;99.90;;;;;;6299704;28;20078;-82
2021/05/19 17:13:35;;;;;;;1.67;1.48;;;11.30;99.90;;;;;;6283444;28;20416;-83
2021/05/19 17:16:36;;;;;;;1.75;1.60;;;11.40;99.90;;;;;;6294388;28;20035;-83
2021/05/19 17:19:36;;;;;;;2.53;1.45;;;11.40;99.90;;;;;;6337943;28;20782;-84
2021/05/19 17:22:37;;;;;;;1.50;1.40;;;;;;;;;;6283354;28;20035;-84